sensor_id;sensor_type;location;lat;lon;timestamp;temperature;humidity
10278;DHT22;5184;51.376;7.148;2022-12-07T00:01:44;4.60;99.90
10278;DHT22;5184;51.376;7.148;2022-12-07T00:04:11;4.50;99.90
10278;DHT22;5184;51.376;7.148;2022-12-07T00:06:39;4.50;99.90
10278;DHT22;5184;51.376;7.148;2022-12-07T00:09:05;4.60;99.90
10278;DHT22;5184;51.376;7.148;2022-12-07T00:11:32;4.60;99.90
10278;DHT22;5184;51.376;7.148;2022-12-07T00:14:00;4.50;99.90
10278;DHT22;5184;51.376;7.148;2022-12-07T00:16:27;4.50;99.90
10278;DHT22;5184;51.376;7.148;2022-12-07T00:18:53;4.50;99.90
10278;DHT22;5184;51.376;7.148;2022-12-07T00:21:22;4.50;99.90
10278;DHT22;5184;51.376;7.148;2022-12-07T00:23:48;4.60;99.90
10278;DHT22;5184;51.376;7.148;2022-12-07T00:26:15;4.60;99.90
10278;DHT22;5184;51.376;7.148;2022-12-07T00:28:41;4.60;99.90
10278;DHT22;5184;51.376;7.148;2022-12-07T00:31:08;4.60;99.90
10278;DHT22;5184;51.376;7.148;2022-12-07T00:33:34;4.60;99.90
10278;DHT22;5184;51.376;7.148;2022-12-07T00:36:01;4.60;99.90
10278;DHT22;5184;51.376;7.148;2022-12-07T00:38:28;4.60;99.90
10278;DHT22;5184;51.376;7.148;2022-12-07T00:40:55;4.60;99.90
10278;DHT22;5184;51.376;7.148;2022-12-07T00:43:20;4.60;99.90
10278;DHT22;5184;51.376;7.148;2022-12-07T00:45:48;4.60;99.90
10278;DHT22;5184;51.376;7.148;2022-12-07T00:48:15;4.60;99.90
10278;DHT22;5184;51.376;7.148;2022-12-07T00:50:42;4.60;99.90
10278;DHT22;5184;51.376;7.148;2022-12-07T00:53:08;4.60;99.90
10278;DHT22;5184;51.376;7.148;2022-12-07T00:55:35;4.60;99.90
10278;DHT22;5184;51.376;7.148;2022-12-07T00:58:02;4.60;99.90
10278;DHT22;5184;51.376;7.148;2022-12-07T01:00:28;4.60;99.90
10278;DHT22;5184;51.376;7.148;2022-12-07T01:02:55;4.60;99.90
10278;DHT22;5184;51.376;7.148;2022-12-07T01:05:22;4.60;99.90
10278;DHT22;5184;51.376;7.148;2022-12-07T01:07:49;4.60;99.90
10278;DHT22;5184;51.376;7.148;2022-12-07T01:10:15;4.60;99.90
10278;DHT22;5184;51.376;7.148;2022-12-07T01:12:42;4.50;99.90
10278;DHT22;5184;51.376;7.148;2022-12-07T01:15:09;4.60;99.90
10278;DHT22;5184;51.376;7.148;2022-12-07T01:17:35;4.60;99.90
10278;DHT22;5184;51.376;7.148;2022-12-07T01:20:02;4.60;99.90
10278;DHT22;5184;51.376;7.148;2022-12-07T01:22:29;4.60;99.90
10278;DHT22;5184;51.376;7.148;2022-12-07T01:24:56;4.60;99.90
10278;DHT22;5184;51.376;7.148;2022-12-07T01:27:23;4.60;99.90
10278;DHT22;5184;51.376;7.148;2022-12-07T01:29:50;4.50;99.90
10278;DHT22;5184;51.376;7.148;2022-12-07T01:32:16;4.50;99.90
10278;DHT22;5184;51.376;7.148;2022-12-07T01:34:44;5.10;99.90
10278;DHT22;5184;51.376;7.148;2022-12-07T01:37:11;4.50;99.90
10278;DHT22;5184;51.376;7.148;2022-12-07T01:39:37;4.60;99.90
10278;DHT22;5184;51.376;7.148;2022-12-07T01:42:05;4.50;99.90
10278;DHT22;5184;51.376;7.148;2022-12-07T01:44:32;4.60;99.90
10278;DHT22;5184;51.376;7.148;2022-12-07T01:47:00;4.60;99.90
10278;DHT22;5184;51.376;7.148;2022-12-07T01:49:31;4.50;99.90
10278;DHT22;5184;51.376;7.148;2022-12-07T01:52:01;4.60;99.90
10278;DHT22;5184;51.376;7.148;2022-12-07T01:54:25;4.60;99.90
10278;DHT22;5184;51.376;7.148;2022-12-07T01:56:52;4.60;99.90
10278;DHT22;5184;51.376;7.148;2022-12-07T01:59:18;4.50;99.90
10278;DHT22;5184;51.376;7.148;2022-12-07T02:01:44;4.50;99.90
10278;DHT22;5184;51.376;7.148;2022-12-07T02:04:12;4.50;99.90
10278;DHT22;5184;51.376;7.148;2022-12-07T02:06:39;4.60;99.90
10278;DHT22;5184;51.376;7.148;2022-12-07T02:09:06;4.50;99.90
10278;DHT22;5184;51.376;7.148;2022-12-07T02:11:32;4.50;99.90
10278;DHT22;5184;51.376;7.148;2022-12-07T02:14:00;4.50;99.90
10278;DHT22;5184;51.376;7.148;2022-12-07T02:16:34;4.50;99.90
10278;DHT22;5184;51.376;7.148;2022-12-07T02:21:37;4.50;99.90
10278;DHT22;5184;51.376;7.148;2022-12-07T02:27:28;4.50;99.90
10278;DHT22;5184;51.376;7.148;2022-12-07T02:29:55;4.50;99.90
10278;DHT22;5184;51.376;7.148;2022-12-07T02:32:36;4.50;99.90
10278;DHT22;5184;51.376;7.148;2022-12-07T02:35:02;4.50;99.90
10278;DHT22;5184;51.376;7.148;2022-12-07T02:37:33;4.50;99.90
10278;DHT22;5184;51.376;7.148;2022-12-07T02:40:01;4.50;99.90
10278;DHT22;5184;51.376;7.148;2022-12-07T02:42:30;4.50;99.90
10278;DHT22;5184;51.376;7.148;2022-12-07T02:44:53;4.50;99.90
10278;DHT22;5184;51.376;7.148;2022-12-07T02:47:20;4.50;99.90
10278;DHT22;5184;51.376;7.148;2022-12-07T02:49:46;2.30;99.90
10278;DHT22;5184;51.376;7.148;2022-12-07T02:52:14;4.40;99.90
10278;DHT22;5184;51.376;7.148;2022-12-07T02:54:41;4.50;99.90
10278;DHT22;5184;51.376;7.148;2022-12-07T02:57:21;4.40;99.90
10278;DHT22;5184;51.376;7.148;2022-12-07T02:59:50;4.40;99.90
10278;DHT22;5184;51.376;7.148;2022-12-07T03:05:13;4.40;99.90
10278;DHT22;5184;51.376;7.148;2022-12-07T03:07:49;4.40;99.90
10278;DHT22;5184;51.376;7.148;2022-12-07T03:10:35;4.40;99.90
10278;DHT22;5184;51.376;7.148;2022-12-07T03:16:08;4.30;99.90
10278;DHT22;5184;51.376;7.148;2022-12-07T03:18:34;4.30;99.90
10278;DHT22;5184;51.376;7.148;2022-12-07T03:20:59;4.30;99.90
10278;DHT22;5184;51.376;7.148;2022-12-07T03:23:25;4.30;99.90
10278;DHT22;5184;51.376;7.148;2022-12-07T03:25:54;4.30;99.90
10278;DHT22;5184;51.376;7.148;2022-12-07T03:28:18;4.30;99.90
10278;DHT22;5184;51.376;7.148;2022-12-07T03:30:56;4.30;99.90
10278;DHT22;5184;51.376;7.148;2022-12-07T03:33:26;4.30;99.90
10278;DHT22;5184;51.376;7.148;2022-12-07T03:35:54;4.20;99.90
10278;DHT22;5184;51.376;7.148;2022-12-07T03:38:33;4.30;99.90
10278;DHT22;5184;51.376;7.148;2022-12-07T03:41:01;4.30;99.90
10278;DHT22;5184;51.376;7.148;2022-12-07T03:43:28;4.20;99.90
10278;DHT22;5184;51.376;7.148;2022-12-07T03:46:07;4.20;99.90
10278;DHT22;5184;51.376;7.148;2022-12-07T03:48:33;4.20;99.90
10278;DHT22;5184;51.376;7.148;2022-12-07T03:51:07;4.20;99.90
10278;DHT22;5184;51.376;7.148;2022-12-07T03:53:34;4.20;99.90
10278;DHT22;5184;51.376;7.148;2022-12-07T03:56:00;4.20;99.90
10278;DHT22;5184;51.376;7.148;2022-12-07T03:58:27;4.20;99.90
10278;DHT22;5184;51.376;7.148;2022-12-07T04:00:54;4.20;99.90
10278;DHT22;5184;51.376;7.148;2022-12-07T04:03:22;4.10;99.90
10278;DHT22;5184;51.376;7.148;2022-12-07T04:05:49;4.10;99.90
10278;DHT22;5184;51.376;7.148;2022-12-07T04:08:16;4.10;99.90
10278;DHT22;5184;51.376;7.148;2022-12-07T04:10:42;4.10;99.90
10278;DHT22;5184;51.376;7.148;2022-12-07T04:13:09;4.10;99.90
10278;DHT22;5184;51.376;7.148;2022-12-07T04:15:36;4.10;99.90
10278;DHT22;5184;51.376;7.148;2022-12-07T04:18:04;4.10;99.90
10278;DHT22;5184;51.376;7.148;2022-12-07T04:20:31;4.10;99.90
10278;DHT22;5184;51.376;7.148;2022-12-07T04:22:58;4.10;99.90
10278;DHT22;5184;51.376;7.148;2022-12-07T04:25:24;4.00;99.90
10278;DHT22;5184;51.376;7.148;2022-12-07T04:27:51;4.00;99.90
10278;DHT22;5184;51.376;7.148;2022-12-07T04:30:17;4.00;99.90
10278;DHT22;5184;51.376;7.148;2022-12-07T04:32:44;4.00;99.90
10278;DHT22;5184;51.376;7.148;2022-12-07T04:35:11;4.00;99.90
10278;DHT22;5184;51.376;7.148;2022-12-07T04:37:38;4.00;99.90
10278;DHT22;5184;51.376;7.148;2022-12-07T04:40:07;4.00;99.90
10278;DHT22;5184;51.376;7.148;2022-12-07T04:42:33;4.00;99.90
10278;DHT22;5184;51.376;7.148;2022-12-07T04:45:00;4.00;99.90
10278;DHT22;5184;51.376;7.148;2022-12-07T04:47:26;4.00;99.90
10278;DHT22;5184;51.376;7.148;2022-12-07T04:49:53;4.00;99.90
10278;DHT22;5184;51.376;7.148;2022-12-07T04:52:20;4.00;99.90
10278;DHT22;5184;51.376;7.148;2022-12-07T04:54:46;4.00;99.90
10278;DHT22;5184;51.376;7.148;2022-12-07T04:57:13;4.00;99.90
10278;DHT22;5184;51.376;7.148;2022-12-07T04:59:40;4.00;99.90
10278;DHT22;5184;51.376;7.148;2022-12-07T05:02:07;4.00;99.90
10278;DHT22;5184;51.376;7.148;2022-12-07T05:04:33;4.00;99.90
10278;DHT22;5184;51.376;7.148;2022-12-07T05:07:00;4.00;99.90
10278;DHT22;5184;51.376;7.148;2022-12-07T05:09:27;4.00;99.90
10278;DHT22;5184;51.376;7.148;2022-12-07T05:11:53;4.00;99.90
10278;DHT22;5184;51.376;7.148;2022-12-07T05:14:21;3.90;99.90
10278;DHT22;5184;51.376;7.148;2022-12-07T05:16:48;3.90;99.90
10278;DHT22;5184;51.376;7.148;2022-12-07T05:19:15;3.90;99.90
10278;DHT22;5184;51.376;7.148;2022-12-07T05:21:42;3.90;99.90
10278;DHT22;5184;51.376;7.148;2022-12-07T05:24:10;3.90;99.90
10278;DHT22;5184;51.376;7.148;2022-12-07T05:26:36;3.90;99.90
10278;DHT22;5184;51.376;7.148;2022-12-07T05:29:02;4.00;99.90
10278;DHT22;5184;51.376;7.148;2022-12-07T05:31:29;4.00;99.90
10278;DHT22;5184;51.376;7.148;2022-12-07T05:33:56;3.90;99.90
10278;DHT22;5184;51.376;7.148;2022-12-07T05:36:22;3.90;99.90
10278;DHT22;5184;51.376;7.148;2022-12-07T05:38:50;3.80;99.90
10278;DHT22;5184;51.376;7.148;2022-12-07T05:41:17;3.80;99.90
10278;DHT22;5184;51.376;7.148;2022-12-07T05:43:49;3.80;99.90
10278;DHT22;5184;51.376;7.148;2022-12-07T05:46:15;3.80;99.90
10278;DHT22;5184;51.376;7.148;2022-12-07T05:48:42;3.80;99.90
10278;DHT22;5184;51.376;7.148;2022-12-07T05:51:09;3.80;99.90
10278;DHT22;5184;51.376;7.148;2022-12-07T05:53:37;3.80;99.90
10278;DHT22;5184;51.376;7.148;2022-12-07T05:56:04;3.80;99.90
10278;DHT22;5184;51.376;7.148;2022-12-07T05:58:31;3.80;99.90
10278;DHT22;5184;51.376;7.148;2022-12-07T06:01:04;3.80;99.90
10278;DHT22;5184;51.376;7.148;2022-12-07T06:03:30;3.80;99.90
10278;DHT22;5184;51.376;7.148;2022-12-07T06:05:57;3.80;99.90
10278;DHT22;5184;51.376;7.148;2022-12-07T06:08:24;3.80;99.90
10278;DHT22;5184;51.376;7.148;2022-12-07T06:10:51;3.80;99.90
10278;DHT22;5184;51.376;7.148;2022-12-07T06:13:19;3.80;99.90
10278;DHT22;5184;51.376;7.148;2022-12-07T06:15:46;3.80;99.90
10278;DHT22;5184;51.376;7.148;2022-12-07T06:18:12;3.80;99.90
10278;DHT22;5184;51.376;7.148;2022-12-07T06:20:39;3.80;99.90
10278;DHT22;5184;51.376;7.148;2022-12-07T06:23:05;3.70;99.90
10278;DHT22;5184;51.376;7.148;2022-12-07T06:25:32;3.80;99.90
10278;DHT22;5184;51.376;7.148;2022-12-07T06:27:59;3.80;99.90
10278;DHT22;5184;51.376;7.148;2022-12-07T06:30:26;3.80;99.90
10278;DHT22;5184;51.376;7.148;2022-12-07T06:32:52;3.80;99.90
10278;DHT22;5184;51.376;7.148;2022-12-07T06:35:19;3.80;99.90
10278;DHT22;5184;51.376;7.148;2022-12-07T06:37:45;3.80;99.90
10278;DHT22;5184;51.376;7.148;2022-12-07T06:40:12;3.80;99.90
10278;DHT22;5184;51.376;7.148;2022-12-07T06:42:39;3.80;99.90
10278;DHT22;5184;51.376;7.148;2022-12-07T06:45:06;3.70;99.90
10278;DHT22;5184;51.376;7.148;2022-12-07T06:47:32;3.80;99.90
10278;DHT22;5184;51.376;7.148;2022-12-07T06:49:59;3.70;99.90
10278;DHT22;5184;51.376;7.148;2022-12-07T06:52:26;3.70;99.90
10278;DHT22;5184;51.376;7.148;2022-12-07T06:54:53;3.70;99.90
10278;DHT22;5184;51.376;7.148;2022-12-07T06:57:20;3.70;99.90
10278;DHT22;5184;51.376;7.148;2022-12-07T06:59:48;3.70;99.90
10278;DHT22;5184;51.376;7.148;2022-12-07T07:02:14;3.70;99.90
10278;DHT22;5184;51.376;7.148;2022-12-07T07:04:41;3.70;99.90
10278;DHT22;5184;51.376;7.148;2022-12-07T07:07:08;3.70;99.90
10278;DHT22;5184;51.376;7.148;2022-12-07T07:09:35;3.70;99.90
10278;DHT22;5184;51.376;7.148;2022-12-07T07:12:02;3.70;99.90
10278;DHT22;5184;51.376;7.148;2022-12-07T07:14:29;3.70;99.90
10278;DHT22;5184;51.376;7.148;2022-12-07T07:16:56;3.70;99.90
10278;DHT22;5184;51.376;7.148;2022-12-07T07:19:22;3.60;99.90
10278;DHT22;5184;51.376;7.148;2022-12-07T07:21:49;3.60;99.90
10278;DHT22;5184;51.376;7.148;2022-12-07T07:24:15;3.60;99.90
10278;DHT22;5184;51.376;7.148;2022-12-07T07:26:42;3.60;99.90
10278;DHT22;5184;51.376;7.148;2022-12-07T07:29:09;3.60;99.90
10278;DHT22;5184;51.376;7.148;2022-12-07T07:31:36;3.50;99.90
10278;DHT22;5184;51.376;7.148;2022-12-07T07:34:03;3.50;99.90
10278;DHT22;5184;51.376;7.148;2022-12-07T07:36:31;3.50;99.90
10278;DHT22;5184;51.376;7.148;2022-12-07T07:38:57;3.50;99.90
10278;DHT22;5184;51.376;7.148;2022-12-07T07:41:24;3.50;99.90
10278;DHT22;5184;51.376;7.148;2022-12-07T07:43:51;3.50;99.90
10278;DHT22;5184;51.376;7.148;2022-12-07T07:46:18;3.50;99.90
10278;DHT22;5184;51.376;7.148;2022-12-07T07:48:44;3.40;99.90
10278;DHT22;5184;51.376;7.148;2022-12-07T07:51:11;3.50;99.90
10278;DHT22;5184;51.376;7.148;2022-12-07T07:53:38;3.50;99.90
10278;DHT22;5184;51.376;7.148;2022-12-07T07:56:04;3.60;99.90
10278;DHT22;5184;51.376;7.148;2022-12-07T07:58:31;3.60;99.90
10278;DHT22;5184;51.376;7.148;2022-12-07T08:01:02;3.60;99.90
10278;DHT22;5184;51.376;7.148;2022-12-07T08:03:25;3.60;99.90
10278;DHT22;5184;51.376;7.148;2022-12-07T08:05:51;3.60;99.90
10278;DHT22;5184;51.376;7.148;2022-12-07T08:08:18;3.60;99.90
10278;DHT22;5184;51.376;7.148;2022-12-07T08:10:45;3.60;99.90
10278;DHT22;5184;51.376;7.148;2022-12-07T08:13:11;3.70;99.90
10278;DHT22;5184;51.376;7.148;2022-12-07T08:15:38;3.70;99.90
10278;DHT22;5184;51.376;7.148;2022-12-07T08:18:05;3.70;99.90
10278;DHT22;5184;51.376;7.148;2022-12-07T08:20:34;3.80;99.90
10278;DHT22;5184;51.376;7.148;2022-12-07T08:22:59;3.80;99.90
10278;DHT22;5184;51.376;7.148;2022-12-07T08:25:27;3.90;99.90
10278;DHT22;5184;51.376;7.148;2022-12-07T08:27:55;3.90;99.90
10278;DHT22;5184;51.376;7.148;2022-12-07T08:30:21;3.90;99.90
10278;DHT22;5184;51.376;7.148;2022-12-07T08:32:48;3.90;99.90
10278;DHT22;5184;51.376;7.148;2022-12-07T08:35:15;3.80;99.90
10278;DHT22;5184;51.376;7.148;2022-12-07T08:37:42;3.80;91.70
10278;DHT22;5184;51.376;7.148;2022-12-07T08:40:10;3.80;95.50
10278;DHT22;5184;51.376;7.148;2022-12-07T08:42:37;3.80;95.50
10278;DHT22;5184;51.376;7.148;2022-12-07T08:45:07;3.90;98.50
10278;DHT22;5184;51.376;7.148;2022-12-07T08:47:34;3.90;96.40
10278;DHT22;5184;51.376;7.148;2022-12-07T08:50:00;3.90;98.10
10278;DHT22;5184;51.376;7.148;2022-12-07T08:52:27;4.00;99.90
10278;DHT22;5184;51.376;7.148;2022-12-07T08:54:55;4.00;79.00
10278;DHT22;5184;51.376;7.148;2022-12-07T08:57:22;4.00;84.20
10278;DHT22;5184;51.376;7.148;2022-12-07T08:59:49;4.10;77.70
10278;DHT22;5184;51.376;7.148;2022-12-07T09:02:16;4.10;76.50
10278;DHT22;5184;51.376;7.148;2022-12-07T09:04:44;4.10;42.10
10278;DHT22;5184;51.376;7.148;2022-12-07T09:07:12;4.10;48.20
10278;DHT22;5184;51.376;7.148;2022-12-07T09:09:38;4.10;47.00
10278;DHT22;5184;51.376;7.148;2022-12-07T09:12:05;4.10;5.70
10278;DHT22;5184;51.376;7.148;2022-12-07T09:14:31;4.10;23.40
10278;DHT22;5184;51.376;7.148;2022-12-07T09:17:06;4.10;1.00
10278;DHT22;5184;51.376;7.148;2022-12-07T09:19:32;4.20;1.00
10278;DHT22;5184;51.376;7.148;2022-12-07T09:21:59;4.20;1.00
10278;DHT22;5184;51.376;7.148;2022-12-07T09:24:27;4.30;1.00
10278;DHT22;5184;51.376;7.148;2022-12-07T09:26:54;4.30;1.00
10278;DHT22;5184;51.376;7.148;2022-12-07T09:29:21;4.20;1.00
10278;DHT22;5184;51.376;7.148;2022-12-07T09:31:48;4.20;1.00
10278;DHT22;5184;51.376;7.148;2022-12-07T09:34:15;4.20;1.00
10278;DHT22;5184;51.376;7.148;2022-12-07T09:36:42;4.20;1.00
10278;DHT22;5184;51.376;7.148;2022-12-07T09:39:09;4.20;1.00
10278;DHT22;5184;51.376;7.148;2022-12-07T09:41:38;4.20;1.00
10278;DHT22;5184;51.376;7.148;2022-12-07T09:44:05;4.20;1.00
10278;DHT22;5184;51.376;7.148;2022-12-07T09:46:33;4.20;1.00
10278;DHT22;5184;51.376;7.148;2022-12-07T09:48:58;4.30;1.00
10278;DHT22;5184;51.376;7.148;2022-12-07T09:51:25;4.30;1.00
10278;DHT22;5184;51.376;7.148;2022-12-07T09:53:53;4.30;1.00
10278;DHT22;5184;51.376;7.148;2022-12-07T09:56:20;4.30;1.00
10278;DHT22;5184;51.376;7.148;2022-12-07T09:58:46;4.30;1.00
10278;DHT22;5184;51.376;7.148;2022-12-07T10:01:14;4.30;1.00
10278;DHT22;5184;51.376;7.148;2022-12-07T10:03:40;4.30;1.00
10278;DHT22;5184;51.376;7.148;2022-12-07T10:06:06;4.20;1.00
10278;DHT22;5184;51.376;7.148;2022-12-07T10:08:32;4.30;1.00
10278;DHT22;5184;51.376;7.148;2022-12-07T10:11:01;4.30;1.00
10278;DHT22;5184;51.376;7.148;2022-12-07T10:13:35;4.30;1.00
10278;DHT22;5184;51.376;7.148;2022-12-07T10:16:01;4.30;1.00
10278;DHT22;5184;51.376;7.148;2022-12-07T10:18:33;4.40;1.00
10278;DHT22;5184;51.376;7.148;2022-12-07T10:21:17;4.40;1.00
10278;DHT22;5184;51.376;7.148;2022-12-07T10:23:59;4.50;1.00
10278;DHT22;5184;51.376;7.148;2022-12-07T10:26:26;4.50;1.00
10278;DHT22;5184;51.376;7.148;2022-12-07T10:28:47;4.50;1.00
10278;DHT22;5184;51.376;7.148;2022-12-07T10:31:17;4.60;1.00
10278;DHT22;5184;51.376;7.148;2022-12-07T10:33:49;4.60;99.90
10278;DHT22;5184;51.376;7.148;2022-12-07T10:36:21;4.70;99.90
10278;DHT22;5184;51.376;7.148;2022-12-07T10:38:49;4.80;91.90
10278;DHT22;5184;51.376;7.148;2022-12-07T10:41:14;4.90;92.00
10278;DHT22;5184;51.376;7.148;2022-12-07T10:43:48;5.10;92.70
10278;DHT22;5184;51.376;7.148;2022-12-07T10:46:25;5.40;99.90
10278;DHT22;5184;51.376;7.148;2022-12-07T10:49:07;5.40;1.00
10278;DHT22;5184;51.376;7.148;2022-12-07T10:51:35;5.50;13.30
10278;DHT22;5184;51.376;7.148;2022-12-07T10:54:18;5.40;99.90
10278;DHT22;5184;51.376;7.148;2022-12-07T10:56:54;5.40;99.90
10278;DHT22;5184;51.376;7.148;2022-12-07T10:59:37;5.40;58.70
10278;DHT22;5184;51.376;7.148;2022-12-07T11:02:11;5.40;1.00
10278;DHT22;5184;51.376;7.148;2022-12-07T11:04:39;5.30;1.00
10278;DHT22;5184;51.376;7.148;2022-12-07T11:07:06;5.30;99.90
10278;DHT22;5184;51.376;7.148;2022-12-07T11:12:27;5.30;99.90
10278;DHT22;5184;51.376;7.148;2022-12-07T11:14:54;5.30;1.00
10278;DHT22;5184;51.376;7.148;2022-12-07T11:17:20;5.20;1.00
10278;DHT22;5184;51.376;7.148;2022-12-07T11:20:03;5.20;99.90
10278;DHT22;5184;51.376;7.148;2022-12-07T11:22:38;5.20;97.00
10278;DHT22;5184;51.376;7.148;2022-12-07T11:26:22;5.20;1.00
10278;DHT22;5184;51.376;7.148;2022-12-07T11:28:17;5.20;99.90
10278;DHT22;5184;51.376;7.148;2022-12-07T11:30:42;5.20;99.90
10278;DHT22;5184;51.376;7.148;2022-12-07T11:33:15;5.20;1.00
10278;DHT22;5184;51.376;7.148;2022-12-07T11:38:20;5.20;99.90
10278;DHT22;5184;51.376;7.148;2022-12-07T11:40:47;5.30;1.00
10278;DHT22;5184;51.376;7.148;2022-12-07T11:43:22;5.30;99.90
10278;DHT22;5184;51.376;7.148;2022-12-07T11:45:52;5.20;99.90
10278;DHT22;5184;51.376;7.148;2022-12-07T11:48:22;5.20;99.90
10278;DHT22;5184;51.376;7.148;2022-12-07T11:50:50;5.20;99.90
10278;DHT22;5184;51.376;7.148;2022-12-07T11:53:18;5.20;99.90
10278;DHT22;5184;51.376;7.148;2022-12-07T11:55:51;5.20;99.90
10278;DHT22;5184;51.376;7.148;2022-12-07T11:58:38;5.20;13.70
10278;DHT22;5184;51.376;7.148;2022-12-07T12:01:11;5.10;1.00
10278;DHT22;5184;51.376;7.148;2022-12-07T12:03:33;5.10;1.00
10278;DHT22;5184;51.376;7.148;2022-12-07T12:05:58;5.20;99.90
10278;DHT22;5184;51.376;7.148;2022-12-07T12:08:29;5.20;99.90
10278;DHT22;5184;51.376;7.148;2022-12-07T12:11:52;5.20;99.90
10278;DHT22;5184;51.376;7.148;2022-12-07T12:14:03;5.20;99.90
10278;DHT22;5184;51.376;7.148;2022-12-07T12:19:06;5.20;99.90
10278;DHT22;5184;51.376;7.148;2022-12-07T12:21:31;5.20;99.90
10278;DHT22;5184;51.376;7.148;2022-12-07T12:23:59;5.20;99.90
10278;DHT22;5184;51.376;7.148;2022-12-07T12:26:25;5.20;1.00
10278;DHT22;5184;51.376;7.148;2022-12-07T12:28:56;5.30;99.90
10278;DHT22;5184;51.376;7.148;2022-12-07T12:31:35;5.20;99.90
10278;DHT22;5184;51.376;7.148;2022-12-07T12:34:04;5.20;99.90
10278;DHT22;5184;51.376;7.148;2022-12-07T12:36:46;5.30;99.90
10278;DHT22;5184;51.376;7.148;2022-12-07T12:39:14;5.30;99.90
10278;DHT22;5184;51.376;7.148;2022-12-07T12:41:55;5.30;99.90
10278;DHT22;5184;51.376;7.148;2022-12-07T12:44:39;5.30;99.90
10278;DHT22;5184;51.376;7.148;2022-12-07T12:52:49;5.50;99.90
10278;DHT22;5184;51.376;7.148;2022-12-07T12:55:16;5.50;25.70
10278;DHT22;5184;51.376;7.148;2022-12-07T12:57:42;5.50;99.90
10278;DHT22;5184;51.376;7.148;2022-12-07T13:00:21;5.50;99.90
10278;DHT22;5184;51.376;7.148;2022-12-07T13:02:54;5.40;23.20
10278;DHT22;5184;51.376;7.148;2022-12-07T13:05:23;5.40;26.40
10278;DHT22;5184;51.376;7.148;2022-12-07T13:07:52;5.50;99.90
10278;DHT22;5184;51.376;7.148;2022-12-07T13:10:40;5.50;1.00
10278;DHT22;5184;51.376;7.148;2022-12-07T13:13:28;5.50;14.40
10278;DHT22;5184;51.376;7.148;2022-12-07T13:15:54;5.50;11.60
10278;DHT22;5184;51.376;7.148;2022-12-07T13:21:41;6.30;1.00
10278;DHT22;5184;51.376;7.148;2022-12-07T13:24:07;5.50;1.00
10278;DHT22;5184;51.376;7.148;2022-12-07T13:26:36;5.60;1.00
10278;DHT22;5184;51.376;7.148;2022-12-07T13:29:13;5.60;1.00
10278;DHT22;5184;51.376;7.148;2022-12-07T13:31:42;5.60;1.00
10278;DHT22;5184;51.376;7.148;2022-12-07T13:34:31;5.60;99.90
10278;DHT22;5184;51.376;7.148;2022-12-07T13:36:56;5.60;1.00
10278;DHT22;5184;51.376;7.148;2022-12-07T13:39:23;5.50;99.90
10278;DHT22;5184;51.376;7.148;2022-12-07T13:41:50;5.50;1.00
10278;DHT22;5184;51.376;7.148;2022-12-07T13:44:16;5.60;12.00
10278;DHT22;5184;51.376;7.148;2022-12-07T13:46:48;5.50;99.90
10278;DHT22;5184;51.376;7.148;2022-12-07T13:49:21;5.50;1.00
10278;DHT22;5184;51.376;7.148;2022-12-07T13:51:46;5.50;1.00
10278;DHT22;5184;51.376;7.148;2022-12-07T13:54:14;5.40;99.90
10278;DHT22;5184;51.376;7.148;2022-12-07T13:56:41;5.40;1.00
10278;DHT22;5184;51.376;7.148;2022-12-07T13:59:16;5.30;1.00
10278;DHT22;5184;51.376;7.148;2022-12-07T14:01:41;5.30;1.00
10278;DHT22;5184;51.376;7.148;2022-12-07T14:04:17;5.20;1.00
10278;DHT22;5184;51.376;7.148;2022-12-07T14:06:49;5.20;1.00
10278;DHT22;5184;51.376;7.148;2022-12-07T14:09:17;5.10;99.90
10278;DHT22;5184;51.376;7.148;2022-12-07T14:11:41;5.10;99.90
10278;DHT22;5184;51.376;7.148;2022-12-07T14:14:10;5.00;99.90
10278;DHT22;5184;51.376;7.148;2022-12-07T14:16:37;5.00;99.90
10278;DHT22;5184;51.376;7.148;2022-12-07T14:19:05;4.90;1.00
10278;DHT22;5184;51.376;7.148;2022-12-07T14:21:33;4.90;1.00
10278;DHT22;5184;51.376;7.148;2022-12-07T14:24:08;4.80;1.00
10278;DHT22;5184;51.376;7.148;2022-12-07T14:26:29;4.80;1.00
10278;DHT22;5184;51.376;7.148;2022-12-07T14:29:18;4.70;99.90
10278;DHT22;5184;51.376;7.148;2022-12-07T14:31:24;4.70;99.90
10278;DHT22;5184;51.376;7.148;2022-12-07T14:33:51;4.60;1.00
10278;DHT22;5184;51.376;7.148;2022-12-07T14:36:18;4.60;1.00
10278;DHT22;5184;51.376;7.148;2022-12-07T14:38:45;4.50;99.90
10278;DHT22;5184;51.376;7.148;2022-12-07T14:41:14;4.50;99.90
10278;DHT22;5184;51.376;7.148;2022-12-07T14:43:45;4.50;99.90
10278;DHT22;5184;51.376;7.148;2022-12-07T14:46:12;4.50;1.00
10278;DHT22;5184;51.376;7.148;2022-12-07T14:48:38;4.40;59.40
10278;DHT22;5184;51.376;7.148;2022-12-07T14:51:07;4.30;10.40
10278;DHT22;5184;51.376;7.148;2022-12-07T14:53:35;4.30;12.00
10278;DHT22;5184;51.376;7.148;2022-12-07T14:56:00;4.30;99.90
10278;DHT22;5184;51.376;7.148;2022-12-07T14:58:27;4.30;99.90
10278;DHT22;5184;51.376;7.148;2022-12-07T15:00:53;4.20;1.00
10278;DHT22;5184;51.376;7.148;2022-12-07T15:03:20;4.20;99.90
10278;DHT22;5184;51.376;7.148;2022-12-07T15:05:47;4.20;99.90
10278;DHT22;5184;51.376;7.148;2022-12-07T15:08:13;4.20;99.90
10278;DHT22;5184;51.376;7.148;2022-12-07T15:10:40;4.20;1.00
10278;DHT22;5184;51.376;7.148;2022-12-07T15:13:07;4.10;1.00
10278;DHT22;5184;51.376;7.148;2022-12-07T15:15:39;4.10;1.00
10278;DHT22;5184;51.376;7.148;2022-12-07T15:18:06;4.10;1.00
10278;DHT22;5184;51.376;7.148;2022-12-07T15:20:33;4.00;1.00
10278;DHT22;5184;51.376;7.148;2022-12-07T15:22:59;4.00;1.00
10278;DHT22;5184;51.376;7.148;2022-12-07T15:25:26;3.90;99.90
10278;DHT22;5184;51.376;7.148;2022-12-07T15:27:52;3.90;1.00
10278;DHT22;5184;51.376;7.148;2022-12-07T15:30:19;3.80;1.00
10278;DHT22;5184;51.376;7.148;2022-12-07T15:32:49;3.80;1.00
10278;DHT22;5184;51.376;7.148;2022-12-07T15:35:15;3.70;1.00
10278;DHT22;5184;51.376;7.148;2022-12-07T15:37:41;3.70;1.80
10278;DHT22;5184;51.376;7.148;2022-12-07T15:40:08;3.60;1.00
10278;DHT22;5184;51.376;7.148;2022-12-07T15:42:35;3.50;99.90
10278;DHT22;5184;51.376;7.148;2022-12-07T15:45:02;3.50;99.90
10278;DHT22;5184;51.376;7.148;2022-12-07T15:47:31;3.50;1.00
10278;DHT22;5184;51.376;7.148;2022-12-07T15:49:57;3.50;1.00
10278;DHT22;5184;51.376;7.148;2022-12-07T15:52:23;3.50;93.20
10278;DHT22;5184;51.376;7.148;2022-12-07T15:54:50;3.50;99.90
10278;DHT22;5184;51.376;7.148;2022-12-07T15:57:17;3.60;99.90
10278;DHT22;5184;51.376;7.148;2022-12-07T15:59:45;3.60;99.90
10278;DHT22;5184;51.376;7.148;2022-12-07T16:02:12;3.60;99.90
10278;DHT22;5184;51.376;7.148;2022-12-07T16:04:38;3.60;99.90
10278;DHT22;5184;51.376;7.148;2022-12-07T16:07:04;3.60;1.00
10278;DHT22;5184;51.376;7.148;2022-12-07T16:09:31;3.60;1.00
10278;DHT22;5184;51.376;7.148;2022-12-07T16:11:58;3.80;1.00
10278;DHT22;5184;51.376;7.148;2022-12-07T16:14:24;3.80;1.00
10278;DHT22;5184;51.376;7.148;2022-12-07T16:16:51;2.20;1.00
10278;DHT22;5184;51.376;7.148;2022-12-07T16:19:17;3.80;1.00
10278;DHT22;5184;51.376;7.148;2022-12-07T16:21:44;3.80;1.00
10278;DHT22;5184;51.376;7.148;2022-12-07T16:24:10;3.70;1.00
10278;DHT22;5184;51.376;7.148;2022-12-07T16:26:37;3.70;1.00
10278;DHT22;5184;51.376;7.148;2022-12-07T16:29:04;3.60;1.00
10278;DHT22;5184;51.376;7.148;2022-12-07T16:31:32;3.60;1.00
10278;DHT22;5184;51.376;7.148;2022-12-07T16:33:59;3.60;1.00
10278;DHT22;5184;51.376;7.148;2022-12-07T16:36:27;3.60;1.00
10278;DHT22;5184;51.376;7.148;2022-12-07T16:38:54;3.60;1.00
10278;DHT22;5184;51.376;7.148;2022-12-07T16:41:21;3.60;1.00